Time;durP1;ratioP1;P1;durP2;ratioP2;P2;SDS_P1;SDS_P2;PMS_P1;PMS_P2;Temp;Humidity;BMP_temperature;BMP_pressure;BME280_temperature;BME280_humidity;BME280_pressure;Samples;Min_cycle;Max_cycle;Signal;HPM_P1;HPM_P2
2023/05/15 00:00:24;;;;;;;0.98;0.95;;;17.10;99.90;;;;;;5079177;28;20091;-80
2023/05/15 00:02:50;;;;;;;0.20;0.20;;;17.20;99.90;;;;;;5078497;28;20258;-73
2023/05/15 00:05:15;;;;;;;0.20;0.20;;;17.20;99.90;;;;;;5078739;28;20487;-78
2023/05/15 00:07:41;;;;;;;0.10;0.10;;;17.20;99.90;;;;;;5078479;28;20020;-76
2023/05/15 00:10:07;;;;;;;0.15;0.15;;;17.10;99.90;;;;;;5078723;28;20331;-78
2023/05/15 00:12:33;;;;;;;0.10;0.10;;;17.10;99.90;;;;;;5076999;28;20518;-81
2023/05/15 00:14:59;;;;;;;0.20;0.20;;;17.00;99.90;;;;;;5078589;28;20031;-75
2023/05/15 00:17:25;;;;;;;0.20;0.20;;;17.00;99.90;;;;;;5078395;28;20020;-73
2023/05/15 00:19:56;;;;;;;0.20;0.20;;;16.90;99.90;;;;;;5078418;28;20332;-75
2023/05/15 00:22:22;;;;;;;0.20;0.20;;;16.80;99.90;;;;;;5076167;28;20404;-81
2023/05/15 00:24:47;;;;;;;0.20;0.20;;;16.70;99.90;;;;;;5076228;28;20138;-79
2023/05/15 00:27:13;;;;;;;0.10;0.10;;;16.70;99.90;;;;;;5078370;28;20047;-78
2023/05/15 00:29:39;;;;;;;0.10;0.10;;;16.60;99.90;;;;;;5078766;28;20034;-77
2023/05/15 00:32:05;;;;;;;0.20;0.20;;;16.50;99.90;;;;;;5078785;28;20596;-77
2023/05/15 00:34:31;;;;;;;0.10;0.10;;;16.40;99.90;;;;;;5078766;28;20012;-76
2023/05/15 00:36:57;;;;;;;0.20;0.20;;;16.30;99.90;;;;;;5078494;28;20518;-74
2023/05/15 00:39:23;;;;;;;0.20;0.20;;;16.20;99.90;;;;;;5078610;28;20028;-79
2023/05/15 00:41:50;;;;;;;0.20;0.20;;;16.10;99.90;;;;;;5078790;28;20089;-78
2023/05/15 00:44:18;;;;;;;0.10;0.10;;;16.10;99.90;;;;;;5078554;28;20035;-73
2023/05/15 00:46:45;;;;;;;0.20;0.20;;;16.10;99.90;;;;;;5078345;28;20038;-75
2023/05/15 00:49:13;;;;;;;0.20;0.20;;;16.10;99.90;;;;;;5077981;28;20028;-76
2023/05/15 00:51:41;;;;;;;0.10;0.10;;;16.10;99.90;;;;;;5078390;28;20513;-79
2023/05/15 00:54:09;;;;;;;0.20;0.20;;;16.00;99.90;;;;;;5077796;28;20054;-78
2023/05/15 00:56:35;;;;;;;4.43;4.18;;;15.90;99.90;;;;;;5077723;28;20300;-78
2023/05/15 00:59:05;;;;;;;0.30;0.30;;;15.80;99.90;;;;;;5078155;28;20141;-76
2023/05/15 01:01:33;;;;;;;0.73;0.73;;;15.80;99.90;;;;;;5078068;28;20374;-77
2023/05/15 01:04:02;;;;;;;0.10;0.10;;;15.70;99.90;;;;;;5077932;28;20035;-74
2023/05/15 01:06:31;;;;;;;0.55;0.55;;;15.70;99.90;;;;;;5077965;28;20501;-81
2023/05/15 01:09:03;;;;;;;0.20;0.20;;;15.80;99.90;;;;;;5077705;28;20047;-77
2023/05/15 01:11:34;;;;;;;0.17;0.17;;;15.80;99.90;;;;;;5076475;28;20311;-79
2023/05/15 01:14:04;;;;;;;20.50;6.32;;;15.90;99.90;;;;;;5077548;28;20078;-76
2023/05/15 01:16:30;;;;;;;0.20;0.20;;;15.90;99.90;;;;;;5077839;28;20016;-74
2023/05/15 01:18:56;;;;;;;0.30;0.30;;;15.90;99.90;;;;;;5077471;28;20016;-80
2023/05/15 01:21:34;;;;;;;0.10;0.10;;;16.00;99.90;;;;;;5077808;28;20246;-75
2023/05/15 01:24:37;;;;;;;1.52;1.45;;;16.00;99.90;;;;;;5077541;28;20028;-83
2023/05/15 01:27:19;;;;;;;0.20;0.20;;;16.00;99.90;;;;;;5077488;28;20024;-79
2023/05/15 01:30:09;;;;;;;0.20;0.20;;;16.00;99.90;;;;;;5077561;28;20044;-77
2023/05/15 01:33:07;;;;;;;0.10;0.10;;;16.00;99.90;;;;;;5077745;28;20008;-80
2023/05/15 01:35:36;;;;;;;0.20;0.20;;;15.90;99.90;;;;;;5078080;28;20072;-77
2023/05/15 01:38:20;;;;;;;0.20;0.20;;;15.90;99.90;;;;;;5077634;28;20024;-80
2023/05/15 01:40:52;;;;;;;0.20;0.20;;;15.70;99.90;;;;;;5077574;28;20314;-86
2023/05/15 01:43:23;;;;;;;0.10;0.10;;;15.70;99.90;;;;;;5077750;28;20009;-73
2023/05/15 01:45:48;;;;;;;0.10;0.10;;;15.70;99.90;;;;;;5077280;28;20024;-75
2023/05/15 01:48:16;;;;;;;0.32;0.32;;;15.60;99.90;;;;;;5077102;28;20029;-75
2023/05/15 01:50:46;;;;;;;1.13;1.13;;;15.50;99.90;;;;;;5077496;28;20030;-80
2023/05/15 01:53:12;;;;;;;0.20;0.20;;;15.50;99.90;;;;;;5077611;28;20028;-80
2023/05/15 01:55:40;;;;;;;0.85;0.85;;;15.40;99.90;;;;;;5077038;28;20304;-76
2023/05/15 01:58:07;;;;;;;0.20;0.20;;;15.40;99.90;;;;;;5077411;28;20058;-76
2023/05/15 02:00:33;;;;;;;0.20;0.20;;;15.30;99.90;;;;;;5077191;28;20016;-81
2023/05/15 02:03:00;;;;;;;0.17;0.17;;;15.20;99.90;;;;;;5076961;28;20099;-75
2023/05/15 02:05:26;;;;;;;1.83;1.73;;;15.20;99.90;;;;;;5076958;28;20472;-74
2023/05/15 02:07:53;;;;;;;0.10;0.10;;;15.20;99.90;;;;;;5079567;28;20720;-76
2023/05/15 02:10:21;;;;;;;10.20;9.40;;;15.10;99.90;;;;;;5081528;28;20048;-79
2023/05/15 02:12:49;;;;;;;2.42;2.33;;;15.10;99.90;;;;;;5081253;28;20051;-84
2023/05/15 02:15:16;;;;;;;0.20;0.20;;;15.00;99.90;;;;;;5081252;28;20453;-76
2023/05/15 02:17:42;;;;;;;0.20;0.20;;;15.00;99.90;;;;;;5081193;28;20064;-79
2023/05/15 02:20:08;;;;;;;0.10;0.10;;;13.60;99.90;;;;;;5081232;28;20123;-78
2023/05/15 02:22:34;;;;;;;0.10;0.10;;;15.00;99.90;;;;;;5081306;28;20024;-86
2023/05/15 02:25:00;;;;;;;0.10;0.10;;;14.80;99.90;;;;;;5080847;28;20556;-83
2023/05/15 02:27:32;;;;;;;0.20;0.20;;;14.90;99.90;;;;;;5080815;28;20438;-78
2023/05/15 02:30:00;;;;;;;0.10;0.10;;;14.80;99.90;;;;;;5081384;28;20046;-76
2023/05/15 02:32:49;;;;;;;0.10;0.10;;;14.80;99.90;;;;;;5080894;28;20012;-82
2023/05/15 02:35:28;;;;;;;0.20;0.20;;;14.80;99.90;;;;;;5080805;28;20023;-81
2023/05/15 02:37:59;;;;;;;0.10;0.10;;;14.90;99.90;;;;;;5080833;28;20024;-76
2023/05/15 02:40:27;;;;;;;0.20;0.20;;;14.80;99.90;;;;;;5080533;28;20020;-79
2023/05/15 02:42:53;;;;;;;0.20;0.20;;;14.80;99.90;;;;;;5080813;28;20303;-76
2023/05/15 02:45:20;;;;;;;0.20;0.20;;;14.80;99.90;;;;;;5080601;28;20209;-75
2023/05/15 02:47:49;;;;;;;0.20;0.20;;;14.80;99.90;;;;;;5079091;28;20499;-78
2023/05/15 02:50:16;;;;;;;0.20;0.20;;;14.80;99.90;;;;;;5080483;28;20035;-75
2023/05/15 02:52:42;;;;;;;0.10;0.10;;;14.80;99.90;;;;;;5078792;28;20118;-81
2023/05/15 02:55:08;;;;;;;1.13;1.08;;;14.80;99.90;;;;;;5080248;28;20040;-82
2023/05/15 02:57:34;;;;;;;0.10;0.10;;;14.80;99.90;;;;;;5079078;28;20316;-76
2023/05/15 03:00:00;;;;;;;0.10;0.10;;;14.80;99.90;;;;;;5080431;28;20219;-79
2023/05/15 03:02:26;;;;;;;0.10;0.10;;;14.80;99.90;;;;;;5080571;28;20166;-76
2023/05/15 03:04:52;;;;;;;0.20;0.20;;;14.80;99.90;;;;;;5080297;28;20024;-79
2023/05/15 03:07:17;;;;;;;0.20;0.20;;;14.70;99.90;;;;;;5079967;28;20044;-78
2023/05/15 03:09:43;;;;;;;0.10;0.10;;;14.60;99.90;;;;;;5077989;28;20130;-80
2023/05/15 03:12:09;;;;;;;0.10;0.10;;;14.60;99.90;;;;;;5080114;28;20024;-75
2023/05/15 03:14:35;;;;;;;0.10;0.10;;;14.60;99.90;;;;;;5080264;28;20020;-77
2023/05/15 03:17:01;;;;;;;0.15;0.15;;;14.50;99.90;;;;;;5080363;28;20224;-81
2023/05/15 03:19:27;;;;;;;0.10;0.10;;;14.50;99.90;;;;;;5078834;28;20016;-79
2023/05/15 03:21:53;;;;;;;0.20;0.20;;;14.50;99.90;;;;;;5080307;28;20296;-79
2023/05/15 03:24:18;;;;;;;0.20;0.20;;;14.50;99.90;;;;;;5080194;28;20401;-74
2023/05/15 03:26:44;;;;;;;0.20;0.20;;;14.50;99.90;;;;;;5080062;28;20032;-78
2023/05/15 03:29:10;;;;;;;0.20;0.20;;;14.50;99.90;;;;;;5078501;28;20040;-79
2023/05/15 03:31:36;;;;;;;0.20;0.20;;;14.50;99.90;;;;;;5079973;28;20081;-78
2023/05/15 03:34:02;;;;;;;0.20;0.20;;;14.50;99.90;;;;;;5079992;28;20046;-80
2023/05/15 03:36:27;;;;;;;0.20;0.20;;;14.50;99.90;;;;;;5079869;28;20474;-79
2023/05/15 03:38:53;;;;;;;0.20;0.20;;;14.50;99.90;;;;;;5080016;28;20478;-77
2023/05/15 03:41:20;;;;;;;0.20;0.20;;;14.50;99.90;;;;;;5079651;28;20027;-82
2023/05/15 03:43:45;;;;;;;0.20;0.20;;;14.60;99.90;;;;;;5079606;28;20017;-83
2023/05/15 03:46:11;;;;;;;0.10;0.10;;;14.60;99.90;;;;;;5079362;28;20034;-80
2023/05/15 03:48:37;;;;;;;0.10;0.10;;;14.60;99.90;;;;;;5079175;28;20039;-74
2023/05/15 03:51:03;;;;;;;0.20;0.20;;;14.60;99.90;;;;;;5079426;28;20101;-78
2023/05/15 03:53:29;;;;;;;0.20;0.20;;;14.70;99.90;;;;;;5079071;28;20031;-81
2023/05/15 03:55:55;;;;;;;0.10;0.10;;;14.70;99.90;;;;;;5078959;28;20028;-79
2023/05/15 03:58:21;;;;;;;0.73;0.73;;;14.70;99.90;;;;;;5077909;28;20059;-76
2023/05/15 04:00:47;;;;;;;1.38;1.38;;;14.70;99.90;;;;;;5079408;28;20510;-80
2023/05/15 04:03:12;;;;;;;0.10;0.10;;;14.70;99.90;;;;;;5079264;28;20275;-78
2023/05/15 04:05:38;;;;;;;0.20;0.20;;;14.70;99.90;;;;;;5079026;28;20016;-73
2023/05/15 04:08:04;;;;;;;0.20;0.20;;;14.70;99.90;;;;;;5079282;28;20097;-77
2023/05/15 04:10:31;;;;;;;0.20;0.20;;;15.90;99.90;;;;;;5079136;28;20459;-78
2023/05/15 04:12:57;;;;;;;0.13;0.13;;;14.60;99.90;;;;;;5079208;28;20012;-81
2023/05/15 04:15:24;;;;;;;0.20;0.20;;;14.70;99.90;;;;;;5079406;28;20081;-78
2023/05/15 04:17:52;;;;;;;0.10;0.10;;;14.60;99.90;;;;;;5079245;28;20379;-82
2023/05/15 04:20:20;;;;;;;0.20;0.20;;;14.60;99.90;;;;;;5077691;28;20370;-84
2023/05/15 04:22:46;;;;;;;0.10;0.10;;;14.60;99.90;;;;;;5079664;28;20541;-83
2023/05/15 04:25:13;;;;;;;0.20;0.20;;;14.60;99.90;;;;;;5079079;28;20067;-83
2023/05/15 04:27:40;;;;;;;0.10;0.10;;;14.60;99.90;;;;;;5078860;28;20020;-81
2023/05/15 04:30:07;;;;;;;0.10;0.10;;;14.60;99.90;;;;;;5078426;28;20256;-85
2023/05/15 04:32:34;;;;;;;0.32;0.32;;;14.50;99.90;;;;;;5079112;28;20219;-81
2023/05/15 04:35:01;;;;;;;0.20;0.20;;;14.60;99.90;;;;;;5078819;28;20494;-85
2023/05/15 04:37:27;;;;;;;0.17;0.17;;;14.60;99.90;;;;;;5078939;28;20020;-80
2023/05/15 04:39:53;;;;;;;0.20;0.20;;;11.00;99.90;;;;;;5078661;28;20219;-74
2023/05/15 04:42:19;;;;;;;0.20;0.20;;;14.50;99.90;;;;;;5078635;28;20110;-74
2023/05/15 04:44:45;;;;;;;2.60;2.40;;;14.50;99.90;;;;;;5078649;28;20250;-75
2023/05/15 04:47:11;;;;;;;0.20;0.20;;;14.50;99.90;;;;;;5078271;28;20111;-77
2023/05/15 04:49:38;;;;;;;0.17;0.17;;;14.50;99.90;;;;;;5078864;28;20294;-79
2023/05/15 04:52:04;;;;;;;0.20;0.20;;;14.50;99.90;;;;;;5078952;28;20236;-78
2023/05/15 04:54:30;;;;;;;0.20;0.20;;;14.40;99.90;;;;;;5078356;28;20317;-83
2023/05/15 04:56:56;;;;;;;0.20;0.20;;;14.40;99.90;;;;;;5078189;28;20280;-73
2023/05/15 04:59:23;;;;;;;0.20;0.20;;;14.40;99.90;;;;;;5076636;28;20024;-82
2023/05/15 05:01:52;;;;;;;0.32;0.32;;;14.40;99.90;;;;;;5078316;28;20525;-82
2023/05/15 05:04:18;;;;;;;0.20;0.20;;;14.40;99.90;;;;;;5078169;28;20063;-81
2023/05/15 05:06:45;;;;;;;2.40;2.30;;;14.30;99.90;;;;;;5078486;28;20258;-80
2023/05/15 05:09:10;;;;;;;0.20;0.20;;;14.40;99.90;;;;;;5078031;28;20036;-80
2023/05/15 05:11:38;;;;;;;0.20;0.20;;;14.40;99.90;;;;;;5078065;28;20599;-73
2023/05/15 05:14:03;;;;;;;0.20;0.20;;;14.50;99.90;;;;;;5078213;28;20024;-81
2023/05/15 05:16:29;;;;;;;0.30;0.30;;;14.50;99.90;;;;;;5078016;28;20100;-82
2023/05/15 05:18:55;;;;;;;1.40;1.40;;;14.50;99.90;;;;;;5078114;28;20016;-76
2023/05/15 05:21:21;;;;;;;2.75;2.65;;;14.60;99.90;;;;;;5077833;28;20502;-81
2023/05/15 05:23:46;;;;;;;0.40;0.40;;;14.60;99.90;;;;;;5076407;28;20478;-77
2023/05/15 05:26:12;;;;;;;0.10;0.10;;;14.60;99.90;;;;;;5077815;28;20051;-79
2023/05/15 05:28:38;;;;;;;0.10;0.10;;;14.70;99.90;;;;;;5077975;28;20028;-82
2023/05/15 05:31:03;;;;;;;0.10;0.10;;;14.70;99.90;;;;;;5078125;28;20020;-79
2023/05/15 05:33:29;;;;;;;0.17;0.17;;;14.80;99.90;;;;;;5077743;28;20316;-73
2023/05/15 05:35:55;;;;;;;0.20;0.20;;;14.90;99.90;;;;;;5077799;28;20020;-78
2023/05/15 05:38:20;;;;;;;0.10;0.10;;;15.00;99.90;;;;;;5077590;28;20430;-83
2023/05/15 05:40:46;;;;;;;0.10;0.10;;;15.00;99.90;;;;;;5077643;28;20033;-73
2023/05/15 05:43:12;;;;;;;0.15;0.15;;;15.10;99.90;;;;;;5080811;28;20024;-80
2023/05/15 05:45:38;;;;;;;0.20;0.20;;;15.10;99.90;;;;;;5081859;28;20024;-83
2023/05/15 05:48:03;;;;;;;0.20;0.20;;;15.10;99.90;;;;;;5081299;28;20470;-81
2023/05/15 05:50:29;;;;;;;0.10;0.10;;;15.20;99.90;;;;;;5081521;28;20315;-79
2023/05/15 05:52:55;;;;;;;0.10;0.10;;;15.20;99.90;;;;;;5081385;28;20495;-79
2023/05/15 05:55:20;;;;;;;0.15;0.15;;;15.10;99.90;;;;;;5081637;28;20040;-82
2023/05/15 05:57:46;;;;;;;0.93;0.88;;;15.10;99.90;;;;;;5081514;28;20035;-76
2023/05/15 06:00:13;;;;;;;0.20;0.20;;;15.00;99.90;;;;;;5081661;28;20406;-79
2023/05/15 06:02:39;;;;;;;0.20;0.20;;;16.60;99.90;;;;;;5080852;28;20020;-80
2023/05/15 06:05:06;;;;;;;0.20;0.20;;;15.10;99.90;;;;;;5081094;28;20430;-79
2023/05/15 06:07:32;;;;;;;0.30;0.30;;;15.10;99.90;;;;;;5080987;28;20267;-83
2023/05/15 06:09:58;;;;;;;0.10;0.10;;;15.10;99.90;;;;;;5081286;28;20087;-79
2023/05/15 06:12:24;;;;;;;0.10;0.10;;;15.10;99.90;;;;;;5081113;28;20492;-74
2023/05/15 06:14:50;;;;;;;0.20;0.20;;;14.50;99.90;;;;;;5079427;28;20319;-73
2023/05/15 06:17:16;;;;;;;0.10;0.10;;;15.10;99.90;;;;;;5080512;28;20030;-76
2023/05/15 06:19:41;;;;;;;0.15;0.15;;;15.10;99.90;;;;;;5081010;28;20181;-74
2023/05/15 06:22:07;;;;;;;0.17;0.17;;;15.10;99.90;;;;;;5080391;28;20342;-79
2023/05/15 06:24:33;;;;;;;0.20;0.20;;;15.10;99.90;;;;;;5080885;28;20521;-77
2023/05/15 06:26:59;;;;;;;0.17;0.17;;;15.00;99.90;;;;;;5080544;28;20020;-79
2023/05/15 06:29:25;;;;;;;0.10;0.10;;;15.00;99.90;;;;;;5080589;28;20430;-83
2023/05/15 06:31:52;;;;;;;0.10;0.10;;;15.00;99.90;;;;;;5080702;28;20197;-82
2023/05/15 06:34:17;;;;;;;0.10;0.10;;;15.10;99.90;;;;;;5079136;28;20243;-74
2023/05/15 06:36:43;;;;;;;0.20;0.20;;;15.10;99.90;;;;;;5080554;28;20032;-77
2023/05/15 06:39:09;;;;;;;0.20;0.20;;;15.10;99.90;;;;;;5080693;28;20331;-81
2023/05/15 06:41:36;;;;;;;0.20;0.20;;;15.20;99.90;;;;;;5080364;28;20618;-80
2023/05/15 06:44:02;;;;;;;0.10;0.10;;;15.20;99.90;;;;;;5080291;28;20387;-80
2023/05/15 06:46:28;;;;;;;0.20;0.20;;;15.20;99.90;;;;;;5080096;28;20095;-78
2023/05/15 06:48:54;;;;;;;0.10;0.10;;;15.30;99.90;;;;;;5079927;28;20177;-75
2023/05/15 06:51:20;;;;;;;0.15;0.15;;;;;;;;;;5080015;28;20027;-83
2023/05/15 06:53:45;;;;;;;0.20;0.20;;;15.30;99.90;;;;;;5079091;28;20051;-77
2023/05/15 06:56:11;;;;;;;0.60;0.60;;;15.30;99.90;;;;;;5080201;28;20024;-77
2023/05/15 06:58:37;;;;;;;0.10;0.10;;;15.30;99.90;;;;;;5080352;28;20035;-80
2023/05/15 07:01:04;;;;;;;0.10;0.10;;;15.30;99.90;;;;;;5079707;28;20028;-83
2023/05/15 07:03:30;;;;;;;0.10;0.10;;;15.20;99.90;;;;;;5079999;28;20016;-81
2023/05/15 07:05:56;;;;;;;0.20;0.20;;;15.20;99.90;;;;;;5079850;28;20043;-86
2023/05/15 07:08:22;;;;;;;0.60;0.60;;;15.20;99.90;;;;;;5079962;28;20032;-74
2023/05/15 07:10:48;;;;;;;1.45;1.25;;;15.30;99.90;;;;;;5081191;28;20662;-87
2023/05/15 07:13:16;;;;;;;0.10;0.10;;;15.30;99.90;;;;;;5081023;28;20115;-77
2023/05/15 07:15:42;;;;;;;0.10;0.10;;;15.10;99.90;;;;;;5081533;28;20063;-87
2023/05/15 07:18:08;;;;;;;0.10;0.10;;;15.30;99.90;;;;;;5081333;28;20081;-81
2023/05/15 07:20:34;;;;;;;2.30;2.20;;;15.20;99.90;;;;;;5081776;28;20036;-79
2023/05/15 07:23:00;;;;;;;0.10;0.10;;;15.10;99.90;;;;;;5081196;28;20045;-89
2023/05/15 07:25:25;;;;;;;0.15;0.15;;;15.20;99.90;;;;;;5081523;28;20016;-88
2023/05/15 07:27:52;;;;;;;0.10;0.10;;;15.10;99.90;;;;;;5080902;28;20028;-78
2023/05/15 07:30:18;;;;;;;0.10;0.10;;;15.10;99.90;;;;;;5079828;28;20484;-84
2023/05/15 07:32:44;;;;;;;0.20;0.20;;;15.20;99.90;;;;;;5080958;28;20029;-75
2023/05/15 07:35:12;;;;;;;0.10;0.10;;;15.20;99.90;;;;;;5080527;28;20702;-88
2023/05/15 07:37:38;;;;;;;0.20;0.20;;;15.30;99.90;;;;;;5081279;28;20620;-80
2023/05/15 07:40:05;;;;;;;3.25;3.15;;;15.40;99.90;;;;;;5080186;28;20031;-80
2023/05/15 07:42:30;;;;;;;0.10;0.10;;;15.40;99.90;;;;;;5081273;28;20696;-77
2023/05/15 07:44:56;;;;;;;0.20;0.20;;;15.40;99.90;;;;;;5081425;28;20018;-82
2023/05/15 07:47:22;;;;;;;0.30;0.30;;;15.40;99.90;;;;;;5080695;28;20039;-77
2023/05/15 07:49:47;;;;;;;2.28;2.08;;;14.70;99.90;;;;;;5079690;28;20032;-79
2023/05/15 07:52:16;;;;;;;0.20;0.20;;;15.50;99.90;;;;;;5081691;28;20646;-74
2023/05/15 07:54:43;;;;;;;0.20;0.20;;;15.50;99.90;;;;;;5081921;28;20048;-76
2023/05/15 07:57:09;;;;;;;0.20;0.20;;;15.50;99.90;;;;;;5080880;28;20016;-75
2023/05/15 07:59:35;;;;;;;0.10;0.10;;;15.60;99.90;;;;;;5079271;28;20107;-82
2023/05/15 08:02:01;;;;;;;0.20;0.20;;;16.10;99.90;;;;;;5079050;28;20088;-79
2023/05/15 08:04:27;;;;;;;0.20;0.20;;;15.70;99.90;;;;;;5078662;28;20020;-73
2023/05/15 08:06:53;;;;;;;0.20;0.20;;;15.70;99.90;;;;;;5079050;28;20020;-75
2023/05/15 08:09:18;;;;;;;0.10;0.10;;;15.70;99.90;;;;;;5078987;28;20043;-84
2023/05/15 08:11:44;;;;;;;0.30;0.30;;;15.70;99.90;;;;;;5078924;28;20662;-82
2023/05/15 08:14:10;;;;;;;0.10;0.10;;;15.70;99.90;;;;;;5079279;28;20506;-76
2023/05/15 08:16:36;;;;;;;0.20;0.20;;;15.70;99.90;;;;;;5077936;28;20656;-84
2023/05/15 08:19:03;;;;;;;0.10;0.10;;;15.80;99.90;;;;;;5079165;28;20260;-82
2023/05/15 08:21:31;;;;;;;0.20;0.20;;;15.70;99.90;;;;;;5079244;28;20052;-84
2023/05/15 08:23:58;;;;;;;0.20;0.20;;;15.80;99.90;;;;;;5079108;28;20638;-76
2023/05/15 08:26:25;;;;;;;0.40;0.40;;;15.90;99.90;;;;;;5078930;28;20662;-81
2023/05/15 08:28:50;;;;;;;0.10;0.10;;;15.90;99.90;;;;;;5078775;28;20250;-79
2023/05/15 08:31:16;;;;;;;0.20;0.20;;;16.00;99.90;;;;;;5078398;28;20709;-83
2023/05/15 08:33:42;;;;;;;0.52;0.52;;;16.10;99.90;;;;;;5078712;28;20515;-80
2023/05/15 08:36:08;;;;;;;0.10;0.10;;;16.20;99.90;;;;;;5078318;28;20012;-82
2023/05/15 08:38:33;;;;;;;0.20;0.20;;;16.30;99.90;;;;;;5077934;28;20020;-84
2023/05/15 08:41:06;;;;;;;0.13;0.13;;;16.30;99.90;;;;;;5077896;28;20665;-84
2023/05/15 08:43:35;;;;;;;0.20;0.20;;;16.40;99.90;;;;;;5078300;28;20220;-77
2023/05/15 08:46:01;;;;;;;0.52;0.52;;;16.30;99.90;;;;;;5078335;28;20036;-73
2023/05/15 08:48:29;;;;;;;0.10;0.10;;;16.30;99.90;;;;;;5078862;28;20124;-84
2023/05/15 08:50:58;;;;;;;0.20;0.20;;;16.20;99.90;;;;;;5079329;28;20180;-85
2023/05/15 08:53:24;;;;;;;0.20;0.20;;;16.10;99.90;;;;;;5079150;28;20025;-74
2023/05/15 08:55:51;;;;;;;4.30;4.05;;;15.90;99.90;;;;;;5078582;28;20047;-87
2023/05/15 08:58:18;;;;;;;0.20;0.20;;;15.80;99.90;;;;;;5079095;28;20016;-84
2023/05/15 09:00:44;;;;;;;0.95;0.95;;;15.70;99.90;;;;;;5078662;28;20020;-74
2023/05/15 09:03:14;;;;;;;0.20;0.20;;;15.70;99.90;;;;;;5078474;28;20638;-86
2023/05/15 09:05:40;;;;;;;0.50;0.50;;;15.70;99.90;;;;;;5078394;28;20020;-83
2023/05/15 09:08:07;;;;;;;0.20;0.20;;;15.60;99.90;;;;;;5078255;28;20060;-72
2023/05/15 09:10:35;;;;;;;0.20;0.20;;;15.50;99.90;;;;;;5079108;28;20021;-82
2023/05/15 09:13:02;;;;;;;0.25;0.25;;;15.40;99.90;;;;;;5078586;28;20054;-83
2023/05/15 09:15:29;;;;;;;0.10;0.10;;;15.30;99.90;;;;;;5078942;28;20017;-77
2023/05/15 09:17:55;;;;;;;0.20;0.20;;;15.30;99.90;;;;;;5078667;28;20029;-83
2023/05/15 09:20:35;;;;;;;0.40;0.40;;;15.20;99.90;;;;;;5079092;28;20016;-86
2023/05/15 09:23:03;;;;;;;3.00;2.72;;;15.10;99.90;;;;;;5079644;28;20035;-84
2023/05/15 09:25:37;;;;;;;0.45;0.45;;;15.10;99.90;;;;;;5079359;28;20035;-82
2023/05/15 09:28:04;;;;;;;1.55;1.40;;;15.00;99.90;;;;;;5079339;28;20039;-79
2023/05/15 09:30:30;;;;;;;0.10;0.10;;;14.20;99.90;;;;;;5079495;28;20027;-84
2023/05/15 09:33:02;;;;;;;0.20;0.20;;;14.70;99.90;;;;;;5079718;28;20020;-80
2023/05/15 09:35:30;;;;;;;0.10;0.10;;;14.60;99.90;;;;;;5079659;28;20051;-90
2023/05/15 09:38:00;;;;;;;0.20;0.20;;;14.50;99.90;;;;;;5078595;28;20016;-72
2023/05/15 09:40:29;;;;;;;0.10;0.10;;;14.40;99.90;;;;;;5078377;28;20027;-82
2023/05/15 09:42:55;;;;;;;0.20;0.20;;;14.50;99.90;;;;;;5078068;28;20031;-84
2023/05/15 09:45:21;;;;;;;0.17;0.17;;;14.50;99.90;;;;;;5078908;28;20153;-82
2023/05/15 09:47:47;;;;;;;0.38;0.38;;;13.90;99.90;;;;;;5078314;28;20095;-83
2023/05/15 09:50:20;;;;;;;11.57;5.88;;;14.40;99.90;;;;;;5078637;28;20166;-72
2023/05/15 09:52:46;;;;;;;2.28;2.17;;;14.50;99.90;;;;;;5078589;28;20013;-83
2023/05/15 09:55:15;;;;;;;0.10;0.10;;;14.50;99.90;;;;;;5079283;28;20131;-87
2023/05/15 09:57:42;;;;;;;1.08;1.08;;;14.50;99.90;;;;;;5079204;28;20405;-86
2023/05/15 10:00:11;;;;;;;1.00;0.55;;;14.60;99.90;;;;;;5079074;28;20020;-86
2023/05/15 10:02:40;;;;;;;0.55;0.55;;;14.70;99.90;;;;;;5079494;28;20569;-84
2023/05/15 10:05:06;;;;;;;0.20;0.20;;;14.70;99.90;;;;;;5078180;28;20462;-85
2023/05/15 10:07:35;;;;;;;0.30;0.30;;;14.80;99.90;;;;;;5078816;28;20055;-87
2023/05/15 10:10:03;;;;;;;0.10;0.10;;;14.90;99.90;;;;;;5077077;28;20040;-84
2023/05/15 10:12:35;;;;;;;0.15;0.15;;;15.00;99.90;;;;;;5078346;28;20046;-86
2023/05/15 10:15:02;;;;;;;0.10;0.10;;;15.10;99.90;;;;;;5078578;28;20031;-73
2023/05/15 10:17:34;;;;;;;0.77;0.77;;;15.20;99.90;;;;;;5077494;28;20093;-85
2023/05/15 10:20:01;;;;;;;0.10;0.10;;;15.30;99.90;;;;;;5076997;28;20012;-83
2023/05/15 10:22:29;;;;;;;0.17;0.17;;;15.50;99.90;;;;;;5078059;28;20028;-88
2023/05/15 10:25:16;;;;;;;5.70;2.83;;;15.50;99.90;;;;;;5077113;28;20028;-74
2023/05/15 10:27:42;;;;;;;0.20;0.20;;;15.50;99.90;;;;;;5077915;28;20107;-73
2023/05/15 10:30:13;;;;;;;0.13;0.13;;;15.50;99.90;;;;;;5082650;28;20353;-82
2023/05/15 10:32:40;;;;;;;0.20;0.20;;;15.50;99.90;;;;;;5082075;28;20498;-81
2023/05/15 10:35:10;;;;;;;1.77;1.65;;;15.40;99.90;;;;;;5080311;28;20028;-83
2023/05/15 10:37:36;;;;;;;0.30;0.30;;;15.30;99.90;;;;;;5082362;28;20019;-73
2023/05/15 10:40:05;;;;;;;0.17;0.17;;;15.20;99.90;;;;;;5082604;28;20018;-77
2023/05/15 10:42:32;;;;;;;0.20;0.20;;;15.10;99.90;;;;;;5080486;28;20024;-85
2023/05/15 10:45:01;;;;;;;1.33;1.33;;;15.10;99.90;;;;;;5083175;28;20021;-84
2023/05/15 10:47:29;;;;;;;0.20;0.20;;;15.10;99.90;;;;;;5085047;28;20020;-83
2023/05/15 10:49:55;;;;;;;0.35;0.35;;;15.10;99.90;;;;;;5091989;28;20059;-78
2023/05/15 10:52:21;;;;;;;0.43;0.43;;;15.10;99.90;;;;;;5095594;28;20016;-82
2023/05/15 10:54:47;;;;;;;0.20;0.20;;;15.10;99.90;;;;;;5101878;28;20048;-85
2023/05/15 10:57:15;;;;;;;0.43;0.43;;;15.10;99.90;;;;;;5102461;28;20016;-83
2023/05/15 10:59:42;;;;;;;0.20;0.20;;;15.50;99.90;;;;;;5102215;28;20016;-84
2023/05/15 11:02:29;;;;;;;0.20;0.20;;;15.30;99.90;;;;;;5101211;28;20093;-81
2023/05/15 11:04:58;;;;;;;0.28;0.28;;;15.10;99.90;;;;;;5092663;28;20011;-85
2023/05/15 11:07:24;;;;;;;0.20;0.20;;;15.10;99.90;;;;;;5087318;28;20055;-78
2023/05/15 11:09:52;;;;;;;5.25;2.85;;;15.10;99.90;;;;;;5082623;28;20032;-82
2023/05/15 11:12:18;;;;;;;0.85;0.60;;;15.10;99.90;;;;;;5082662;28;20615;-81
2023/05/15 11:14:56;;;;;;;0.22;0.22;;;15.10;99.90;;;;;;5082576;28;20107;-86
2023/05/15 11:17:25;;;;;;;0.10;0.10;;;16.90;99.90;;;;;;5082720;28;20096;-85
2023/05/15 11:19:51;;;;;;;1.30;1.30;;;15.00;99.90;;;;;;5082984;28;20004;-88
2023/05/15 11:22:21;;;;;;;2.67;2.50;;;14.90;99.90;;;;;;5083182;28;20108;-86
2023/05/15 11:24:53;;;;;;;1.48;1.38;;;14.80;99.90;;;;;;5081892;28;20008;-84
2023/05/15 11:27:23;;;;;;;0.35;0.35;;;14.80;99.90;;;;;;5082175;28;20031;-85
2023/05/15 11:30:11;;;;;;;3.80;3.60;;;14.80;99.90;;;;;;5081279;28;20040;-86
2023/05/15 11:32:40;;;;;;;0.20;0.20;;;14.80;99.90;;;;;;5083841;28;20175;-83
2023/05/15 11:35:26;;;;;;;0.20;0.20;;;15.00;99.90;;;;;;5083179;28;20047;-85
2023/05/15 11:37:57;;;;;;;1.27;1.27;;;15.00;99.90;;;;;;5083014;28;20047;-79
2023/05/15 11:40:25;;;;;;;1.65;1.55;;;15.10;99.90;;;;;;5082347;28;20093;-77
2023/05/15 11:43:27;;;;;;;0.20;0.20;;;15.10;99.90;;;;;;5084202;28;20112;-85
2023/05/15 11:45:54;;;;;;;0.63;0.63;;;15.10;99.90;;;;;;5085206;28;20156;-83
2023/05/15 11:48:22;;;;;;;0.20;0.20;;;15.10;99.90;;;;;;5081779;28;20738;-79
2023/05/15 11:50:48;;;;;;;0.52;0.52;;;15.10;99.90;;;;;;5084025;28;20023;-81
2023/05/15 11:53:14;;;;;;;0.35;0.35;;;15.10;99.90;;;;;;5081247;28;20017;-81
2023/05/15 11:55:43;;;;;;;2.78;2.58;;;15.10;99.90;;;;;;5081202;28;20040;-86
2023/05/15 11:58:17;;;;;;;0.47;0.47;;;15.10;99.90;;;;;;5079734;28;20569;-85
2023/05/15 12:00:48;;;;;;;0.20;0.20;;;15.10;99.90;;;;;;5079142;28;20487;-87
2023/05/15 12:03:17;;;;;;;1.35;1.30;;;15.20;99.90;;;;;;5081483;28;20590;-84
2023/05/15 12:05:43;;;;;;;0.13;0.13;;;15.10;99.90;;;;;;5081053;28;20062;-82
2023/05/15 12:08:11;;;;;;;0.20;0.20;;;15.20;99.90;;;;;;5081791;28;20145;-83
2023/05/15 12:10:44;;;;;;;0.85;0.85;;;15.20;99.90;;;;;;5081086;28;20024;-72
2023/05/15 12:13:14;;;;;;;0.43;0.43;;;15.10;99.90;;;;;;5080705;28;20051;-83
2023/05/15 12:15:45;;;;;;;0.20;0.20;;;15.10;99.90;;;;;;5079790;28;20637;-78
2023/05/15 12:18:11;;;;;;;1.65;1.65;;;15.10;99.90;;;;;;5080714;28;20032;-85
2023/05/15 12:20:38;;;;;;;0.20;0.20;;;15.20;99.90;;;;;;5080255;28;20016;-80
2023/05/15 12:23:07;;;;;;;0.20;0.20;;;15.10;99.90;;;;;;5080215;28;20618;-74
2023/05/15 12:25:34;;;;;;;0.20;0.20;;;15.10;99.90;;;;;;5078238;28;20112;-81
2023/05/15 12:28:03;;;;;;;0.20;0.20;;;15.10;99.90;;;;;;5077653;28;20617;-74
2023/05/15 12:30:33;;;;;;;0.15;0.15;;;15.10;99.90;;;;;;5080159;28;20039;-83
2023/05/15 12:33:02;;;;;;;1.00;1.00;;;15.00;99.90;;;;;;5078998;28;20606;-88
2023/05/15 12:35:27;;;;;;;0.20;0.20;;;15.10;99.90;;;;;;5080276;28;20020;-84
2023/05/15 12:37:53;;;;;;;1.85;1.27;;;15.10;99.90;;;;;;5079921;28;20020;-92
2023/05/15 12:40:22;;;;;;;1.13;1.13;;;15.10;99.90;;;;;;5080619;28;20032;-91
2023/05/15 12:42:55;;;;;;;0.20;0.20;;;15.10;99.90;;;;;;5080631;28;20540;-84
2023/05/15 12:45:22;;;;;;;0.63;0.63;;;15.10;99.90;;;;;;5079871;28;20024;-84
2023/05/15 12:47:49;;;;;;;0.10;0.10;;;15.20;99.90;;;;;;5078639;28;20027;-89
2023/05/15 12:50:17;;;;;;;0.13;0.13;;;15.20;99.90;;;;;;5080246;28;20035;-76